sensor_id;sensor_type;location;lat;lon;timestamp;P1;durP1;ratioP1;P2;durP2;ratioP2
146;SDS011;45999;48.808;9.182;2023-02-01T00:00:49;3.30;;;2.60;;
146;SDS011;45999;48.808;9.182;2023-02-01T00:03:15;2.70;;;2.47;;
146;SDS011;45999;48.808;9.182;2023-02-01T00:05:43;3.07;;;2.60;;
146;SDS011;45999;48.808;9.182;2023-02-01T00:08:10;2.67;;;2.47;;
146;SDS011;45999;48.808;9.182;2023-02-01T00:10:36;2.97;;;2.47;;
146;SDS011;45999;48.808;9.182;2023-02-01T00:13:03;2.57;;;2.17;;
146;SDS011;45999;48.808;9.182;2023-02-01T00:15:29;3.17;;;2.37;;
146;SDS011;45999;48.808;9.182;2023-02-01T00:17:55;3.67;;;2.20;;
146;SDS011;45999;48.808;9.182;2023-02-01T00:20:22;2.40;;;2.20;;
146;SDS011;45999;48.808;9.182;2023-02-01T00:22:48;3.37;;;2.17;;
146;SDS011;45999;48.808;9.182;2023-02-01T00:25:14;1.77;;;1.63;;
146;SDS011;45999;48.808;9.182;2023-02-01T00:27:41;2.30;;;2.10;;
146;SDS011;45999;48.808;9.182;2023-02-01T00:30:08;2.30;;;1.90;;
146;SDS011;45999;48.808;9.182;2023-02-01T00:32:35;2.13;;;1.93;;
146;SDS011;45999;48.808;9.182;2023-02-01T00:35:02;1.83;;;1.73;;
146;SDS011;45999;48.808;9.182;2023-02-01T00:37:28;1.67;;;1.50;;
146;SDS011;45999;48.808;9.182;2023-02-01T00:39:55;1.77;;;1.60;;
146;SDS011;45999;48.808;9.182;2023-02-01T00:42:21;1.90;;;1.70;;
146;SDS011;45999;48.808;9.182;2023-02-01T00:44:47;1.57;;;1.47;;
146;SDS011;45999;48.808;9.182;2023-02-01T00:47:14;1.87;;;1.63;;
146;SDS011;45999;48.808;9.182;2023-02-01T00:49:40;2.30;;;2.10;;
146;SDS011;45999;48.808;9.182;2023-02-01T00:52:06;2.00;;;1.80;;
146;SDS011;45999;48.808;9.182;2023-02-01T00:54:33;1.83;;;1.63;;
146;SDS011;45999;48.808;9.182;2023-02-01T00:57:00;1.77;;;1.67;;
146;SDS011;45999;48.808;9.182;2023-02-01T00:59:27;2.10;;;1.90;;
146;SDS011;45999;48.808;9.182;2023-02-01T01:01:53;1.63;;;1.53;;
146;SDS011;45999;48.808;9.182;2023-02-01T01:04:19;1.80;;;1.70;;
146;SDS011;45999;48.808;9.182;2023-02-01T01:06:46;2.20;;;1.60;;
146;SDS011;45999;48.808;9.182;2023-02-01T01:09:12;1.83;;;1.67;;
146;SDS011;45999;48.808;9.182;2023-02-01T01:11:39;1.67;;;1.50;;
146;SDS011;45999;48.808;9.182;2023-02-01T01:14:06;3.00;;;1.80;;
146;SDS011;45999;48.808;9.182;2023-02-01T01:16:34;3.17;;;1.83;;
146;SDS011;45999;48.808;9.182;2023-02-01T01:19:00;1.60;;;1.50;;
146;SDS011;45999;48.808;9.182;2023-02-01T01:21:27;1.70;;;1.30;;
146;SDS011;45999;48.808;9.182;2023-02-01T01:23:54;1.60;;;1.50;;
146;SDS011;45999;48.808;9.182;2023-02-01T01:26:22;1.90;;;1.40;;
146;SDS011;45999;48.808;9.182;2023-02-01T01:28:50;2.27;;;1.60;;
146;SDS011;45999;48.808;9.182;2023-02-01T01:31:18;1.50;;;1.40;;
146;SDS011;45999;48.808;9.182;2023-02-01T01:33:50;1.50;;;1.40;;
146;SDS011;45999;48.808;9.182;2023-02-01T01:36:18;1.37;;;1.23;;
146;SDS011;45999;48.808;9.182;2023-02-01T01:38:45;1.30;;;1.20;;
146;SDS011;45999;48.808;9.182;2023-02-01T01:41:15;1.87;;;1.40;;
146;SDS011;45999;48.808;9.182;2023-02-01T01:43:52;2.57;;;1.17;;
146;SDS011;45999;48.808;9.182;2023-02-01T01:46:30;1.40;;;1.30;;
146;SDS011;45999;48.808;9.182;2023-02-01T01:49:01;1.17;;;1.07;;
146;SDS011;45999;48.808;9.182;2023-02-01T01:54:21;1.07;;;1.07;;
146;SDS011;45999;48.808;9.182;2023-02-01T01:56:56;1.10;;;1.00;;
146;SDS011;45999;48.808;9.182;2023-02-01T01:59:24;1.63;;;1.03;;
146;SDS011;45999;48.808;9.182;2023-02-01T02:01:52;1.17;;;1.10;;
146;SDS011;45999;48.808;9.182;2023-02-01T02:04:18;0.90;;;0.90;;
146;SDS011;45999;48.808;9.182;2023-02-01T02:06:54;2.40;;;1.27;;
146;SDS011;45999;48.808;9.182;2023-02-01T02:09:26;1.13;;;1.10;;
146;SDS011;45999;48.808;9.182;2023-02-01T02:11:53;1.03;;;1.00;;
146;SDS011;45999;48.808;9.182;2023-02-01T02:14:19;1.20;;;1.10;;
146;SDS011;45999;48.808;9.182;2023-02-01T02:34:06;1.57;;;1.23;;
146;SDS011;45999;48.808;9.182;2023-02-01T02:36:49;1.23;;;1.13;;
146;SDS011;45999;48.808;9.182;2023-02-01T02:42:07;1.30;;;1.20;;
146;SDS011;45999;48.808;9.182;2023-02-01T02:45:10;1.33;;;1.20;;
146;SDS011;45999;48.808;9.182;2023-02-01T02:48:17;1.77;;;1.40;;
146;SDS011;45999;48.808;9.182;2023-02-01T02:51:05;1.37;;;1.10;;
146;SDS011;45999;48.808;9.182;2023-02-01T02:53:58;1.53;;;1.43;;
146;SDS011;45999;48.808;9.182;2023-02-01T02:56:46;1.57;;;1.47;;
146;SDS011;45999;48.808;9.182;2023-02-01T02:59:30;1.67;;;1.57;;
146;SDS011;45999;48.808;9.182;2023-02-01T03:02:17;1.40;;;1.30;;
146;SDS011;45999;48.808;9.182;2023-02-01T03:05:02;2.20;;;1.50;;
146;SDS011;45999;48.808;9.182;2023-02-01T03:10:14;1.83;;;1.70;;
146;SDS011;45999;48.808;9.182;2023-02-01T03:12:50;2.13;;;2.00;;
146;SDS011;45999;48.808;9.182;2023-02-01T03:15:32;1.60;;;1.50;;
146;SDS011;45999;48.808;9.182;2023-02-01T03:18:04;1.90;;;1.70;;
146;SDS011;45999;48.808;9.182;2023-02-01T03:20:38;2.50;;;1.73;;
146;SDS011;45999;48.808;9.182;2023-02-01T03:23:08;2.00;;;1.60;;
146;SDS011;45999;48.808;9.182;2023-02-01T03:25:38;3.00;;;1.53;;
146;SDS011;45999;48.808;9.182;2023-02-01T03:28:06;2.57;;;1.70;;
146;SDS011;45999;48.808;9.182;2023-02-01T03:30:35;1.80;;;1.47;;
146;SDS011;45999;48.808;9.182;2023-02-01T03:33:05;1.83;;;1.50;;
146;SDS011;45999;48.808;9.182;2023-02-01T03:41:05;1.60;;;1.50;;
146;SDS011;45999;48.808;9.182;2023-02-01T03:43:49;2.03;;;1.87;;
146;SDS011;45999;48.808;9.182;2023-02-01T03:46:27;1.87;;;1.77;;
146;SDS011;45999;48.808;9.182;2023-02-01T03:49:00;1.63;;;1.53;;
146;SDS011;45999;48.808;9.182;2023-02-01T03:51:29;1.87;;;1.60;;
146;SDS011;45999;48.808;9.182;2023-02-01T03:53:56;1.40;;;1.30;;
146;SDS011;45999;48.808;9.182;2023-02-01T03:56:25;2.40;;;1.90;;
146;SDS011;45999;48.808;9.182;2023-02-01T03:58:54;2.00;;;1.57;;
146;SDS011;45999;48.808;9.182;2023-02-01T04:01:28;1.93;;;1.60;;
146;SDS011;45999;48.808;9.182;2023-02-01T04:03:56;1.80;;;1.70;;
146;SDS011;45999;48.808;9.182;2023-02-01T04:06:24;1.73;;;1.63;;
146;SDS011;45999;48.808;9.182;2023-02-01T04:08:51;1.53;;;1.43;;
146;SDS011;45999;48.808;9.182;2023-02-01T04:11:17;1.60;;;1.50;;
146;SDS011;45999;48.808;9.182;2023-02-01T04:13:44;1.50;;;1.40;;
146;SDS011;45999;48.808;9.182;2023-02-01T04:16:10;1.70;;;1.53;;
146;SDS011;45999;48.808;9.182;2023-02-01T04:18:37;1.70;;;1.60;;
146;SDS011;45999;48.808;9.182;2023-02-01T04:21:03;1.63;;;1.53;;
146;SDS011;45999;48.808;9.182;2023-02-01T04:23:30;1.60;;;1.50;;
146;SDS011;45999;48.808;9.182;2023-02-01T04:26:00;1.70;;;1.60;;
146;SDS011;45999;48.808;9.182;2023-02-01T04:28:27;1.40;;;1.30;;
146;SDS011;45999;48.808;9.182;2023-02-01T04:30:55;1.67;;;1.50;;
146;SDS011;45999;48.808;9.182;2023-02-01T04:33:21;1.50;;;1.40;;
146;SDS011;45999;48.808;9.182;2023-02-01T04:35:48;2.10;;;1.70;;
146;SDS011;45999;48.808;9.182;2023-02-01T04:38:14;1.50;;;1.40;;
146;SDS011;45999;48.808;9.182;2023-02-01T04:40:41;4.43;;;1.60;;
146;SDS011;45999;48.808;9.182;2023-02-01T04:43:08;1.60;;;1.50;;
146;SDS011;45999;48.808;9.182;2023-02-01T04:45:34;3.80;;;1.63;;
146;SDS011;45999;48.808;9.182;2023-02-01T04:48:00;1.50;;;1.40;;
146;SDS011;45999;48.808;9.182;2023-02-01T04:50:27;1.60;;;1.50;;
146;SDS011;45999;48.808;9.182;2023-02-01T04:52:53;1.10;;;1.10;;
146;SDS011;45999;48.808;9.182;2023-02-01T04:55:19;1.63;;;1.23;;
146;SDS011;45999;48.808;9.182;2023-02-01T04:57:46;2.20;;;1.40;;
146;SDS011;45999;48.808;9.182;2023-02-01T05:00:12;1.43;;;1.07;;
146;SDS011;45999;48.808;9.182;2023-02-01T05:02:39;1.10;;;0.93;;
146;SDS011;45999;48.808;9.182;2023-02-01T05:05:05;2.83;;;1.30;;
146;SDS011;45999;48.808;9.182;2023-02-01T05:07:32;1.70;;;1.20;;
146;SDS011;45999;48.808;9.182;2023-02-01T05:09:58;0.97;;;0.97;;
146;SDS011;45999;48.808;9.182;2023-02-01T05:12:24;1.20;;;1.10;;
146;SDS011;45999;48.808;9.182;2023-02-01T05:15:08;1.40;;;1.30;;
146;SDS011;45999;48.808;9.182;2023-02-01T05:17:35;1.80;;;1.47;;
146;SDS011;45999;48.808;9.182;2023-02-01T05:20:01;2.40;;;1.30;;
146;SDS011;45999;48.808;9.182;2023-02-01T05:22:27;1.77;;;1.30;;
146;SDS011;45999;48.808;9.182;2023-02-01T05:24:54;1.30;;;1.20;;
146;SDS011;45999;48.808;9.182;2023-02-01T05:27:20;1.30;;;1.20;;
146;SDS011;45999;48.808;9.182;2023-02-01T05:29:46;1.17;;;1.07;;
146;SDS011;45999;48.808;9.182;2023-02-01T05:32:13;1.47;;;1.37;;
146;SDS011;45999;48.808;9.182;2023-02-01T05:34:39;1.40;;;1.30;;
146;SDS011;45999;48.808;9.182;2023-02-01T05:37:05;1.50;;;1.20;;
146;SDS011;45999;48.808;9.182;2023-02-01T05:39:32;1.90;;;1.20;;
146;SDS011;45999;48.808;9.182;2023-02-01T05:41:58;1.60;;;1.40;;
146;SDS011;45999;48.808;9.182;2023-02-01T05:44:25;1.27;;;1.23;;
146;SDS011;45999;48.808;9.182;2023-02-01T05:46:51;1.67;;;1.50;;
146;SDS011;45999;48.808;9.182;2023-02-01T05:49:17;2.00;;;1.33;;
146;SDS011;45999;48.808;9.182;2023-02-01T05:51:44;3.03;;;1.60;;
146;SDS011;45999;48.808;9.182;2023-02-01T05:54:10;1.77;;;1.63;;
146;SDS011;45999;48.808;9.182;2023-02-01T05:56:37;2.37;;;1.50;;
146;SDS011;45999;48.808;9.182;2023-02-01T05:59:03;1.73;;;1.50;;
146;SDS011;45999;48.808;9.182;2023-02-01T06:01:29;2.97;;;1.50;;
146;SDS011;45999;48.808;9.182;2023-02-01T06:03:56;1.57;;;1.40;;
146;SDS011;45999;48.808;9.182;2023-02-01T06:06:22;2.20;;;1.50;;
146;SDS011;45999;48.808;9.182;2023-02-01T06:08:48;1.87;;;1.77;;
146;SDS011;45999;48.808;9.182;2023-02-01T06:11:15;1.80;;;1.70;;
146;SDS011;45999;48.808;9.182;2023-02-01T06:13:41;2.00;;;1.60;;
146;SDS011;45999;48.808;9.182;2023-02-01T06:16:07;2.23;;;1.60;;
146;SDS011;45999;48.808;9.182;2023-02-01T06:18:34;1.90;;;1.70;;
146;SDS011;45999;48.808;9.182;2023-02-01T06:21:01;2.30;;;2.07;;
146;SDS011;45999;48.808;9.182;2023-02-01T06:23:28;2.27;;;1.53;;
146;SDS011;45999;48.808;9.182;2023-02-01T06:26:00;2.30;;;1.70;;
146;SDS011;45999;48.808;9.182;2023-02-01T06:28:28;2.13;;;1.50;;
146;SDS011;45999;48.808;9.182;2023-02-01T06:30:55;1.87;;;1.27;;
146;SDS011;45999;48.808;9.182;2023-02-01T06:33:23;1.93;;;1.43;;
146;SDS011;45999;48.808;9.182;2023-02-01T06:36:00;2.73;;;1.70;;
146;SDS011;45999;48.808;9.182;2023-02-01T06:38:28;1.87;;;1.43;;
146;SDS011;45999;48.808;9.182;2023-02-01T06:40:55;1.37;;;1.27;;
146;SDS011;45999;48.808;9.182;2023-02-01T06:43:23;1.50;;;1.40;;
146;SDS011;45999;48.808;9.182;2023-02-01T06:45:51;1.67;;;1.50;;
146;SDS011;45999;48.808;9.182;2023-02-01T06:48:18;2.00;;;1.40;;
146;SDS011;45999;48.808;9.182;2023-02-01T06:50:44;2.27;;;1.53;;
146;SDS011;45999;48.808;9.182;2023-02-01T06:53:11;2.00;;;1.43;;
146;SDS011;45999;48.808;9.182;2023-02-01T06:55:37;2.40;;;1.70;;
146;SDS011;45999;48.808;9.182;2023-02-01T06:58:03;2.70;;;1.60;;
146;SDS011;45999;48.808;9.182;2023-02-01T07:00:30;2.90;;;1.90;;
146;SDS011;45999;48.808;9.182;2023-02-01T07:02:57;2.17;;;1.70;;
146;SDS011;45999;48.808;9.182;2023-02-01T07:05:24;4.10;;;2.00;;
146;SDS011;45999;48.808;9.182;2023-02-01T07:07:51;2.60;;;1.53;;
146;SDS011;45999;48.808;9.182;2023-02-01T07:10:17;4.10;;;1.70;;
146;SDS011;45999;48.808;9.182;2023-02-01T07:12:43;3.17;;;1.80;;
146;SDS011;45999;48.808;9.182;2023-02-01T07:15:10;3.10;;;2.07;;
146;SDS011;45999;48.808;9.182;2023-02-01T07:17:36;3.57;;;1.73;;
146;SDS011;45999;48.808;9.182;2023-02-01T07:20:03;2.10;;;1.63;;
146;SDS011;45999;48.808;9.182;2023-02-01T07:22:30;4.57;;;1.90;;
146;SDS011;45999;48.808;9.182;2023-02-01T07:24:56;3.57;;;1.93;;
146;SDS011;45999;48.808;9.182;2023-02-01T07:27:22;3.67;;;2.17;;
146;SDS011;45999;48.808;9.182;2023-02-01T07:29:50;4.70;;;2.13;;
146;SDS011;45999;48.808;9.182;2023-02-01T07:32:17;6.53;;;2.03;;
146;SDS011;45999;48.808;9.182;2023-02-01T07:34:44;3.13;;;1.90;;
146;SDS011;45999;48.808;9.182;2023-02-01T07:37:11;3.50;;;2.10;;
146;SDS011;45999;48.808;9.182;2023-02-01T07:39:37;5.47;;;1.70;;
146;SDS011;45999;48.808;9.182;2023-02-01T07:42:03;4.60;;;2.00;;
146;SDS011;45999;48.808;9.182;2023-02-01T07:44:30;6.57;;;2.10;;
146;SDS011;45999;48.808;9.182;2023-02-01T07:46:56;3.97;;;1.80;;
146;SDS011;45999;48.808;9.182;2023-02-01T07:49:22;5.37;;;2.07;;
146;SDS011;45999;48.808;9.182;2023-02-01T07:51:49;4.67;;;1.90;;
146;SDS011;45999;48.808;9.182;2023-02-01T07:54:15;5.10;;;2.17;;
146;SDS011;45999;48.808;9.182;2023-02-01T07:56:42;4.73;;;2.30;;
146;SDS011;45999;48.808;9.182;2023-02-01T07:59:08;3.63;;;1.87;;
146;SDS011;45999;48.808;9.182;2023-02-01T08:01:35;7.07;;;2.50;;
146;SDS011;45999;48.808;9.182;2023-02-01T08:04:02;5.07;;;2.43;;
146;SDS011;45999;48.808;9.182;2023-02-01T08:06:31;4.73;;;2.30;;
146;SDS011;45999;48.808;9.182;2023-02-01T08:09:00;6.13;;;2.10;;
146;SDS011;45999;48.808;9.182;2023-02-01T08:11:26;4.43;;;2.27;;
146;SDS011;45999;48.808;9.182;2023-02-01T08:13:53;13.03;;;2.73;;
146;SDS011;45999;48.808;9.182;2023-02-01T08:16:20;6.10;;;2.50;;
146;SDS011;45999;48.808;9.182;2023-02-01T08:18:47;7.27;;;2.17;;
146;SDS011;45999;48.808;9.182;2023-02-01T08:21:14;6.83;;;2.60;;
146;SDS011;45999;48.808;9.182;2023-02-01T08:23:43;5.80;;;2.30;;
146;SDS011;45999;48.808;9.182;2023-02-01T08:26:13;6.50;;;2.10;;
146;SDS011;45999;48.808;9.182;2023-02-01T08:28:44;6.40;;;2.60;;
146;SDS011;45999;48.808;9.182;2023-02-01T08:31:13;6.37;;;2.20;;
146;SDS011;45999;48.808;9.182;2023-02-01T08:33:42;7.13;;;2.50;;
146;SDS011;45999;48.808;9.182;2023-02-01T08:36:10;5.40;;;2.10;;
146;SDS011;45999;48.808;9.182;2023-02-01T08:38:37;8.30;;;2.30;;
146;SDS011;45999;48.808;9.182;2023-02-01T08:41:08;4.83;;;2.30;;
146;SDS011;45999;48.808;9.182;2023-02-01T08:43:43;4.33;;;2.20;;
146;SDS011;45999;48.808;9.182;2023-02-01T08:46:11;6.73;;;2.10;;
146;SDS011;45999;48.808;9.182;2023-02-01T08:48:41;9.47;;;2.80;;
146;SDS011;45999;48.808;9.182;2023-02-01T08:51:09;5.87;;;2.20;;
146;SDS011;45999;48.808;9.182;2023-02-01T08:53:37;7.07;;;2.60;;
146;SDS011;45999;48.808;9.182;2023-02-01T08:56:06;10.60;;;2.23;;
146;SDS011;45999;48.808;9.182;2023-02-01T08:58:33;7.10;;;2.30;;
146;SDS011;45999;48.808;9.182;2023-02-01T09:01:07;7.30;;;2.20;;
146;SDS011;45999;48.808;9.182;2023-02-01T09:03:37;7.67;;;2.77;;
146;SDS011;45999;48.808;9.182;2023-02-01T09:06:04;9.50;;;2.37;;
146;SDS011;45999;48.808;9.182;2023-02-01T09:08:35;8.40;;;2.17;;
146;SDS011;45999;48.808;9.182;2023-02-01T09:11:03;7.90;;;2.00;;
146;SDS011;45999;48.808;9.182;2023-02-01T09:13:31;5.60;;;2.30;;
146;SDS011;45999;48.808;9.182;2023-02-01T09:16:00;7.30;;;2.23;;
146;SDS011;45999;48.808;9.182;2023-02-01T09:18:26;6.03;;;2.50;;
146;SDS011;45999;48.808;9.182;2023-02-01T09:20:53;6.23;;;2.40;;
146;SDS011;45999;48.808;9.182;2023-02-01T09:23:19;5.37;;;2.10;;
146;SDS011;45999;48.808;9.182;2023-02-01T09:25:47;8.50;;;2.27;;
146;SDS011;45999;48.808;9.182;2023-02-01T09:28:15;8.33;;;2.50;;
146;SDS011;45999;48.808;9.182;2023-02-01T09:30:41;8.87;;;2.70;;
146;SDS011;45999;48.808;9.182;2023-02-01T09:33:08;6.57;;;2.23;;
146;SDS011;45999;48.808;9.182;2023-02-01T09:35:34;6.50;;;2.40;;
146;SDS011;45999;48.808;9.182;2023-02-01T09:38:00;9.10;;;2.37;;
146;SDS011;45999;48.808;9.182;2023-02-01T09:40:27;7.33;;;1.70;;
146;SDS011;45999;48.808;9.182;2023-02-01T09:43:07;7.53;;;2.53;;
146;SDS011;45999;48.808;9.182;2023-02-01T09:45:54;9.67;;;2.60;;
146;SDS011;45999;48.808;9.182;2023-02-01T09:48:32;7.60;;;2.07;;
146;SDS011;45999;48.808;9.182;2023-02-01T09:51:04;11.50;;;2.80;;
146;SDS011;45999;48.808;9.182;2023-02-01T09:53:37;11.50;;;3.23;;
146;SDS011;45999;48.808;9.182;2023-02-01T09:56:15;9.37;;;2.47;;
146;SDS011;45999;48.808;9.182;2023-02-01T10:01:35;7.57;;;2.30;;
146;SDS011;45999;48.808;9.182;2023-02-01T10:04:04;8.13;;;2.60;;
146;SDS011;45999;48.808;9.182;2023-02-01T10:06:39;8.33;;;2.10;;
146;SDS011;45999;48.808;9.182;2023-02-01T10:12:18;10.27;;;2.63;;
146;SDS011;45999;48.808;9.182;2023-02-01T10:18:00;8.17;;;2.63;;
146;SDS011;45999;48.808;9.182;2023-02-01T10:23:43;9.80;;;3.00;;
146;SDS011;45999;48.808;9.182;2023-02-01T10:26:19;9.53;;;2.43;;
146;SDS011;45999;48.808;9.182;2023-02-01T10:28:52;14.07;;;2.50;;
146;SDS011;45999;48.808;9.182;2023-02-01T10:31:23;8.67;;;2.33;;
146;SDS011;45999;48.808;9.182;2023-02-01T10:33:55;12.83;;;2.60;;
146;SDS011;45999;48.808;9.182;2023-02-01T10:36:28;4.70;;;2.20;;
146;SDS011;45999;48.808;9.182;2023-02-01T10:38:59;7.97;;;2.27;;
146;SDS011;45999;48.808;9.182;2023-02-01T10:41:33;9.20;;;2.83;;
146;SDS011;45999;48.808;9.182;2023-02-01T10:44:03;7.77;;;2.57;;
146;SDS011;45999;48.808;9.182;2023-02-01T10:46:31;8.07;;;3.00;;
146;SDS011;45999;48.808;9.182;2023-02-01T10:49:00;10.23;;;2.47;;
146;SDS011;45999;48.808;9.182;2023-02-01T10:51:31;6.63;;;2.13;;
146;SDS011;45999;48.808;9.182;2023-02-01T10:54:15;8.77;;;2.60;;
146;SDS011;45999;48.808;9.182;2023-02-01T10:56:45;8.33;;;2.57;;
146;SDS011;45999;48.808;9.182;2023-02-01T10:59:16;5.60;;;2.17;;
146;SDS011;45999;48.808;9.182;2023-02-01T11:01:49;7.57;;;2.20;;
146;SDS011;45999;48.808;9.182;2023-02-01T11:04:23;11.10;;;2.83;;
146;SDS011;45999;48.808;9.182;2023-02-01T11:07:12;9.17;;;2.00;;
146;SDS011;45999;48.808;9.182;2023-02-01T11:09:49;10.73;;;2.40;;
146;SDS011;45999;48.808;9.182;2023-02-01T11:15:11;8.60;;;2.30;;
146;SDS011;45999;48.808;9.182;2023-02-01T11:17:47;9.07;;;2.83;;
146;SDS011;45999;48.808;9.182;2023-02-01T11:21:02;7.47;;;2.23;;
146;SDS011;45999;48.808;9.182;2023-02-01T11:23:11;10.30;;;2.27;;
146;SDS011;45999;48.808;9.182;2023-02-01T11:25:51;7.10;;;2.00;;
146;SDS011;45999;48.808;9.182;2023-02-01T11:28:20;7.83;;;2.23;;
146;SDS011;45999;48.808;9.182;2023-02-01T11:30:49;8.53;;;2.40;;
146;SDS011;45999;48.808;9.182;2023-02-01T11:33:20;10.60;;;3.13;;
146;SDS011;45999;48.808;9.182;2023-02-01T11:35:52;7.07;;;2.40;;
146;SDS011;45999;48.808;9.182;2023-02-01T11:38:20;9.40;;;2.40;;
146;SDS011;45999;48.808;9.182;2023-02-01T11:40:53;10.63;;;2.33;;
146;SDS011;45999;48.808;9.182;2023-02-01T11:43:26;9.07;;;2.30;;
146;SDS011;45999;48.808;9.182;2023-02-01T11:45:58;8.50;;;1.90;;
146;SDS011;45999;48.808;9.182;2023-02-01T11:48:30;9.83;;;2.67;;
146;SDS011;45999;48.808;9.182;2023-02-01T11:54:07;7.60;;;2.60;;
146;SDS011;45999;48.808;9.182;2023-02-01T11:56:41;10.93;;;2.73;;
146;SDS011;45999;48.808;9.182;2023-02-01T12:02:02;8.27;;;2.27;;
146;SDS011;45999;48.808;9.182;2023-02-01T12:10:50;11.50;;;2.57;;
146;SDS011;45999;48.808;9.182;2023-02-01T12:21:29;8.10;;;2.63;;
146;SDS011;45999;48.808;9.182;2023-02-01T12:29:36;12.80;;;4.20;;
146;SDS011;45999;48.808;9.182;2023-02-01T12:41:27;8.27;;;2.03;;
146;SDS011;45999;48.808;9.182;2023-02-01T12:43:38;9.03;;;2.20;;
146;SDS011;45999;48.808;9.182;2023-02-01T12:46:07;9.00;;;2.37;;
146;SDS011;45999;48.808;9.182;2023-02-01T12:48:57;8.43;;;2.17;;
146;SDS011;45999;48.808;9.182;2023-02-01T12:51:33;9.68;;;2.85;;
146;SDS011;45999;48.808;9.182;2023-02-01T12:56:52;7.77;;;2.23;;
146;SDS011;45999;48.808;9.182;2023-02-01T12:59:27;11.43;;;2.60;;
146;SDS011;45999;48.808;9.182;2023-02-01T13:02:11;7.30;;;2.67;;
146;SDS011;45999;48.808;9.182;2023-02-01T13:07:14;7.00;;;2.30;;
146;SDS011;45999;48.808;9.182;2023-02-01T13:09:52;8.43;;;2.10;;
146;SDS011;45999;48.808;9.182;2023-02-01T13:12:37;11.50;;;2.67;;
146;SDS011;45999;48.808;9.182;2023-02-01T13:15:16;6.17;;;2.07;;
146;SDS011;45999;48.808;9.182;2023-02-01T13:17:51;9.90;;;2.07;;
146;SDS011;45999;48.808;9.182;2023-02-01T13:22:59;10.60;;;2.33;;
146;SDS011;45999;48.808;9.182;2023-02-01T13:25:32;10.37;;;2.30;;
146;SDS011;45999;48.808;9.182;2023-02-01T13:28:05;9.30;;;2.23;;
146;SDS011;45999;48.808;9.182;2023-02-01T13:33:33;9.17;;;2.20;;
146;SDS011;45999;48.808;9.182;2023-02-01T13:41:57;4.73;;;2.07;;
146;SDS011;45999;48.808;9.182;2023-02-01T13:44:31;9.60;;;2.43;;
146;SDS011;45999;48.808;9.182;2023-02-01T13:47:12;5.93;;;1.87;;
146;SDS011;45999;48.808;9.182;2023-02-01T13:49:50;11.00;;;2.23;;
146;SDS011;45999;48.808;9.182;2023-02-01T13:52:27;10.60;;;2.13;;
146;SDS011;45999;48.808;9.182;2023-02-01T13:55:03;7.47;;;1.80;;
146;SDS011;45999;48.808;9.182;2023-02-01T13:57:41;9.03;;;2.17;;
146;SDS011;45999;48.808;9.182;2023-02-01T14:00:29;10.13;;;2.40;;
146;SDS011;45999;48.808;9.182;2023-02-01T14:13:30;8.00;;;2.13;;
146;SDS011;45999;48.808;9.182;2023-02-01T14:23:42;9.00;;;2.17;;
146;SDS011;45999;48.808;9.182;2023-02-01T14:26:14;5.07;;;1.60;;
146;SDS011;45999;48.808;9.182;2023-02-01T14:28:44;9.40;;;2.27;;
146;SDS011;45999;48.808;9.182;2023-02-01T14:31:16;11.83;;;2.00;;
146;SDS011;45999;48.808;9.182;2023-02-01T14:33:55;6.63;;;2.00;;
146;SDS011;45999;48.808;9.182;2023-02-01T14:36:24;6.77;;;2.20;;
146;SDS011;45999;48.808;9.182;2023-02-01T14:38:51;10.30;;;2.67;;
146;SDS011;45999;48.808;9.182;2023-02-01T14:41:31;9.77;;;2.23;;
146;SDS011;45999;48.808;9.182;2023-02-01T14:44:44;6.73;;;2.27;;
146;SDS011;45999;48.808;9.182;2023-02-01T14:50:02;7.47;;;1.77;;
146;SDS011;45999;48.808;9.182;2023-02-01T14:52:37;13.60;;;2.30;;
146;SDS011;45999;48.808;9.182;2023-02-01T14:57:40;8.87;;;2.50;;
146;SDS011;45999;48.808;9.182;2023-02-01T15:02:44;10.33;;;2.40;;
146;SDS011;45999;48.808;9.182;2023-02-01T15:05:28;10.43;;;2.30;;
146;SDS011;45999;48.808;9.182;2023-02-01T15:07:59;16.87;;;2.90;;
146;SDS011;45999;48.808;9.182;2023-02-01T15:10:31;10.23;;;2.23;;
146;SDS011;45999;48.808;9.182;2023-02-01T15:13:05;9.10;;;2.43;;
146;SDS011;45999;48.808;9.182;2023-02-01T15:15:31;8.37;;;2.50;;
146;SDS011;45999;48.808;9.182;2023-02-01T15:18:01;8.70;;;2.23;;
146;SDS011;45999;48.808;9.182;2023-02-01T15:20:29;9.67;;;2.50;;
146;SDS011;45999;48.808;9.182;2023-02-01T15:22:58;8.07;;;2.13;;
146;SDS011;45999;48.808;9.182;2023-02-01T15:25:36;7.63;;;2.00;;
146;SDS011;45999;48.808;9.182;2023-02-01T15:28:04;9.57;;;2.20;;
146;SDS011;45999;48.808;9.182;2023-02-01T15:30:38;7.57;;;1.97;;
146;SDS011;45999;48.808;9.182;2023-02-01T15:33:15;8.80;;;2.80;;
146;SDS011;45999;48.808;9.182;2023-02-01T15:35:45;8.10;;;2.10;;
146;SDS011;45999;48.808;9.182;2023-02-01T15:41:02;9.90;;;2.00;;
146;SDS011;45999;48.808;9.182;2023-02-01T15:46:24;10.73;;;2.53;;
146;SDS011;45999;48.808;9.182;2023-02-01T15:48:55;6.43;;;2.03;;
146;SDS011;45999;48.808;9.182;2023-02-01T15:51:23;6.07;;;2.00;;
146;SDS011;45999;48.808;9.182;2023-02-01T15:53:59;10.73;;;2.33;;
146;SDS011;45999;48.808;9.182;2023-02-01T15:56:39;9.10;;;2.20;;
146;SDS011;45999;48.808;9.182;2023-02-01T15:59:15;8.20;;;2.07;;
146;SDS011;45999;48.808;9.182;2023-02-01T16:01:43;6.77;;;1.60;;
146;SDS011;45999;48.808;9.182;2023-02-01T16:06:51;7.07;;;1.90;;
146;SDS011;45999;48.808;9.182;2023-02-01T16:09:35;9.87;;;2.13;;
146;SDS011;45999;48.808;9.182;2023-02-01T16:12:19;9.27;;;2.10;;
146;SDS011;45999;48.808;9.182;2023-02-01T16:14:59;8.63;;;2.33;;
146;SDS011;45999;48.808;9.182;2023-02-01T16:17:26;7.67;;;2.00;;
146;SDS011;45999;48.808;9.182;2023-02-01T16:19:53;5.27;;;1.97;;
146;SDS011;45999;48.808;9.182;2023-02-01T16:22:19;6.90;;;1.97;;
146;SDS011;45999;48.808;9.182;2023-02-01T16:24:45;4.13;;;1.67;;
146;SDS011;45999;48.808;9.182;2023-02-01T16:27:12;7.50;;;2.33;;
146;SDS011;45999;48.808;9.182;2023-02-01T16:29:38;7.30;;;1.60;;
146;SDS011;45999;48.808;9.182;2023-02-01T16:32:05;10.07;;;2.03;;
146;SDS011;45999;48.808;9.182;2023-02-01T16:34:31;6.10;;;1.80;;
146;SDS011;45999;48.808;9.182;2023-02-01T16:37:00;9.80;;;1.90;;
146;SDS011;45999;48.808;9.182;2023-02-01T16:39:27;4.13;;;2.00;;
146;SDS011;45999;48.808;9.182;2023-02-01T16:41:53;7.07;;;2.33;;
146;SDS011;45999;48.808;9.182;2023-02-01T16:44:19;5.73;;;1.83;;
146;SDS011;45999;48.808;9.182;2023-02-01T16:46:46;8.90;;;2.37;;
146;SDS011;45999;48.808;9.182;2023-02-01T16:49:21;7.87;;;1.90;;
146;SDS011;45999;48.808;9.182;2023-02-01T16:51:50;5.37;;;1.87;;
146;SDS011;45999;48.808;9.182;2023-02-01T16:54:19;7.17;;;2.30;;
146;SDS011;45999;48.808;9.182;2023-02-01T16:56:46;8.17;;;2.27;;
146;SDS011;45999;48.808;9.182;2023-02-01T16:59:13;8.03;;;2.20;;
146;SDS011;45999;48.808;9.182;2023-02-01T17:01:40;7.73;;;2.20;;
146;SDS011;45999;48.808;9.182;2023-02-01T17:04:07;6.13;;;1.77;;
146;SDS011;45999;48.808;9.182;2023-02-01T17:06:37;11.63;;;2.23;;
146;SDS011;45999;48.808;9.182;2023-02-01T17:09:04;8.20;;;2.33;;
146;SDS011;45999;48.808;9.182;2023-02-01T17:11:31;9.70;;;2.30;;
146;SDS011;45999;48.808;9.182;2023-02-01T17:14:04;9.43;;;1.93;;
146;SDS011;45999;48.808;9.182;2023-02-01T17:16:40;10.10;;;1.87;;
146;SDS011;45999;48.808;9.182;2023-02-01T17:19:15;5.10;;;1.60;;
146;SDS011;45999;48.808;9.182;2023-02-01T17:21:50;10.60;;;2.30;;
146;SDS011;45999;48.808;9.182;2023-02-01T17:24:21;5.50;;;2.00;;
146;SDS011;45999;48.808;9.182;2023-02-01T17:26:49;7.23;;;1.80;;
146;SDS011;45999;48.808;9.182;2023-02-01T17:29:16;9.13;;;2.13;;
146;SDS011;45999;48.808;9.182;2023-02-01T17:31:43;8.73;;;2.17;;
146;SDS011;45999;48.808;9.182;2023-02-01T17:34:14;5.67;;;1.80;;
146;SDS011;45999;48.808;9.182;2023-02-01T17:36:45;10.73;;;2.30;;
146;SDS011;45999;48.808;9.182;2023-02-01T17:39:15;7.13;;;2.30;;
146;SDS011;45999;48.808;9.182;2023-02-01T17:41:56;5.23;;;1.90;;
146;SDS011;45999;48.808;9.182;2023-02-01T17:44:23;8.17;;;2.33;;
146;SDS011;45999;48.808;9.182;2023-02-01T17:46:49;6.90;;;2.03;;